sensor_id;sensor_type;location;lat;lon;timestamp;pressure;altitude;pressure_sealevel;temperature;humidity
1616;BME280;801;47.982;7.810;2023-04-26T00:01:30;98697.09;;;9.27;100.00
1616;BME280;801;47.982;7.810;2023-04-26T00:03:57;98698.31;;;9.19;100.00
1616;BME280;801;47.982;7.810;2023-04-26T00:06:26;98692.09;;;9.13;100.00
1616;BME280;801;47.982;7.810;2023-04-26T00:08:52;98693.88;;;9.08;100.00
1616;BME280;801;47.982;7.810;2023-04-26T00:11:19;98692.00;;;9.08;100.00
1616;BME280;801;47.982;7.810;2023-04-26T00:13:46;98701.06;;;9.02;100.00
1616;BME280;801;47.982;7.810;2023-04-26T00:16:12;98705.53;;;8.97;100.00
1616;BME280;801;47.982;7.810;2023-04-26T00:18:39;98700.09;;;8.91;100.00
1616;BME280;801;47.982;7.810;2023-04-26T00:21:05;98698.47;;;8.90;100.00
1616;BME280;801;47.982;7.810;2023-04-26T00:23:33;98702.84;;;8.97;100.00
1616;BME280;801;47.982;7.810;2023-04-26T00:26:00;98700.03;;;8.86;100.00
1616;BME280;801;47.982;7.810;2023-04-26T00:28:27;98704.31;;;8.87;100.00
1616;BME280;801;47.982;7.810;2023-04-26T00:30:54;98701.47;;;8.77;100.00
1616;BME280;801;47.982;7.810;2023-04-26T00:33:22;98695.00;;;8.73;100.00
1616;BME280;801;47.982;7.810;2023-04-26T00:35:48;98693.38;;;8.72;100.00
1616;BME280;801;47.982;7.810;2023-04-26T00:38:15;98700.28;;;8.68;100.00
1616;BME280;801;47.982;7.810;2023-04-26T00:40:42;98699.06;;;8.59;100.00
1616;BME280;801;47.982;7.810;2023-04-26T00:43:09;98704.81;;;8.50;100.00
1616;BME280;801;47.982;7.810;2023-04-26T00:45:36;98710.84;;;8.41;100.00
1616;BME280;801;47.982;7.810;2023-04-26T00:48:03;98706.75;;;8.38;100.00
1616;BME280;801;47.982;7.810;2023-04-26T00:50:30;98705.13;;;8.37;100.00
1616;BME280;801;47.982;7.810;2023-04-26T00:52:57;98712.84;;;8.34;100.00
1616;BME280;801;47.982;7.810;2023-04-26T00:55:25;98716.66;;;8.38;100.00
1616;BME280;801;47.982;7.810;2023-04-26T00:57:53;98719.06;;;8.39;100.00
1616;BME280;801;47.982;7.810;2023-04-26T01:00:20;98709.94;;;8.35;100.00
1616;BME280;801;47.982;7.810;2023-04-26T01:02:47;98708.97;;;8.41;100.00
1616;BME280;801;47.982;7.810;2023-04-26T01:05:13;98715.69;;;8.27;100.00
1616;BME280;801;47.982;7.810;2023-04-26T01:07:40;98710.09;;;8.28;100.00
1616;BME280;801;47.982;7.810;2023-04-26T01:10:07;98706.25;;;8.24;100.00
1616;BME280;801;47.982;7.810;2023-04-26T01:12:34;98706.56;;;8.28;100.00
1616;BME280;801;47.982;7.810;2023-04-26T01:15:05;98701.16;;;8.23;100.00
1616;BME280;801;47.982;7.810;2023-04-26T01:17:32;98700.34;;;8.22;100.00
1616;BME280;801;47.982;7.810;2023-04-26T01:19:59;98704.31;;;8.20;100.00
1616;BME280;801;47.982;7.810;2023-04-26T01:22:25;98704.88;;;8.22;100.00
1616;BME280;801;47.982;7.810;2023-04-26T01:24:54;98705.47;;;8.24;100.00
1616;BME280;801;47.982;7.810;2023-04-26T01:27:22;98692.88;;;8.24;100.00
1616;BME280;801;47.982;7.810;2023-04-26T01:29:48;98696.84;;;8.22;100.00
1616;BME280;801;47.982;7.810;2023-04-26T01:32:15;98689.88;;;8.21;100.00
1616;BME280;801;47.982;7.810;2023-04-26T01:34:41;98680.38;;;8.13;100.00
1616;BME280;801;47.982;7.810;2023-04-26T01:37:08;98678.63;;;7.90;100.00
1616;BME280;801;47.982;7.810;2023-04-26T01:39:35;98677.84;;;8.06;100.00
1616;BME280;801;47.982;7.810;2023-04-26T01:42:03;98675.25;;;8.11;100.00
1616;BME280;801;47.982;7.810;2023-04-26T01:44:30;98681.09;;;8.08;100.00
1616;BME280;801;47.982;7.810;2023-04-26T01:46:57;98676.22;;;8.05;100.00
1616;BME280;801;47.982;7.810;2023-04-26T01:49:23;98665.50;;;8.05;100.00
1616;BME280;801;47.982;7.810;2023-04-26T01:51:50;98671.19;;;8.09;100.00
1616;BME280;801;47.982;7.810;2023-04-26T01:54:17;98674.13;;;8.07;100.00
1616;BME280;801;47.982;7.810;2023-04-26T01:56:44;98672.97;;;8.03;100.00
1616;BME280;801;47.982;7.810;2023-04-26T01:59:11;98672.50;;;8.06;100.00
1616;BME280;801;47.982;7.810;2023-04-26T02:01:40;98672.97;;;8.03;100.00
1616;BME280;801;47.982;7.810;2023-04-26T02:04:07;98665.66;;;7.99;100.00
1616;BME280;801;47.982;7.810;2023-04-26T02:06:33;98671.84;;;7.99;100.00
1616;BME280;801;47.982;7.810;2023-04-26T02:09:00;98664.94;;;8.03;100.00
1616;BME280;801;47.982;7.810;2023-04-26T02:11:27;98676.22;;;8.05;100.00
1616;BME280;801;47.982;7.810;2023-04-26T02:13:53;98672.97;;;8.03;100.00
1616;BME280;801;47.982;7.810;2023-04-26T02:16:21;98679.63;;;8.01;100.00
1616;BME280;801;47.982;7.810;2023-04-26T02:18:48;98673.97;;;7.97;100.00
1616;BME280;801;47.982;7.810;2023-04-26T02:21:15;98675.56;;;7.98;100.00
1616;BME280;801;47.982;7.810;2023-04-26T02:23:42;98666.00;;;8.02;100.00
1616;BME280;801;47.982;7.810;2023-04-26T02:26:08;98666.16;;;7.96;100.00
1616;BME280;801;47.982;7.810;2023-04-26T02:28:35;98669.72;;;7.84;100.00
1616;BME280;801;47.982;7.810;2023-04-26T02:31:02;98675.88;;;7.85;100.00
1616;BME280;801;47.982;7.810;2023-04-26T02:33:30;98673.28;;;7.90;100.00
1616;BME280;801;47.982;7.810;2023-04-26T02:35:57;98678.63;;;7.90;100.00
1616;BME280;801;47.982;7.810;2023-04-26T02:38:23;98677.59;;;7.91;100.00
1616;BME280;801;47.982;7.810;2023-04-26T02:40:57;98672.97;;;8.03;100.00
1616;BME280;801;47.982;7.810;2023-04-26T02:43:23;98672.97;;;8.03;100.00
1616;BME280;801;47.982;7.810;2023-04-26T02:45:50;98678.31;;;8.03;100.00
1616;BME280;801;47.982;7.810;2023-04-26T02:48:16;98679.63;;;8.01;100.00
1616;BME280;801;47.982;7.810;2023-04-26T02:50:45;98670.78;;;8.00;100.00
1616;BME280;801;47.982;7.810;2023-04-26T02:53:12;98678.31;;;8.03;100.00
1616;BME280;801;47.982;7.810;2023-04-26T02:55:38;98678.09;;;8.05;100.00
1616;BME280;801;47.982;7.810;2023-04-26T02:58:05;98677.66;;;7.96;100.00
1616;BME280;801;47.982;7.810;2023-04-26T03:00:31;98674.09;;;7.90;100.00
1616;BME280;801;47.982;7.810;2023-04-26T03:02:59;98673.47;;;8.00;100.00
1616;BME280;801;47.982;7.810;2023-04-26T03:05:26;98668.59;;;7.97;100.00
1616;BME280;801;47.982;7.810;2023-04-26T03:07:54;98666.66;;;7.93;100.00
1616;BME280;801;47.982;7.810;2023-04-26T03:10:20;98675.06;;;7.84;100.00
1616;BME280;801;47.982;7.810;2023-04-26T03:12:47;98680.03;;;7.93;100.00
1616;BME280;801;47.982;7.810;2023-04-26T03:15:13;98675.88;;;7.85;100.00
1616;BME280;801;47.982;7.810;2023-04-26T03:17:40;98671.00;;;7.82;100.00
1616;BME280;801;47.982;7.810;2023-04-26T03:20:08;98674.00;;;7.85;100.00
1616;BME280;801;47.982;7.810;2023-04-26T03:22:35;98664.66;;;7.88;100.00
1616;BME280;801;47.982;7.810;2023-04-26T03:25:05;98663.56;;;7.84;100.00
1616;BME280;801;47.982;7.810;2023-04-26T03:27:31;98666.69;;;7.81;100.00
1616;BME280;801;47.982;7.810;2023-04-26T03:29:58;98663.69;;;7.77;100.00
1616;BME280;801;47.982;7.810;2023-04-26T03:32:25;98661.75;;;7.73;100.00
1616;BME280;801;47.982;7.810;2023-04-26T03:34:51;98657.34;;;7.66;100.00
1616;BME280;801;47.982;7.810;2023-04-26T03:37:18;98653.53;;;7.62;100.00
1616;BME280;801;47.982;7.810;2023-04-26T03:39:44;98646.38;;;7.51;100.00
1616;BME280;801;47.982;7.810;2023-04-26T03:42:12;98641.38;;;7.43;100.00
1616;BME280;801;47.982;7.810;2023-04-26T03:44:39;98647.88;;;7.47;100.00
1616;BME280;801;47.982;7.810;2023-04-26T03:47:05;98648.38;;;7.44;100.00
1616;BME280;801;47.982;7.810;2023-04-26T03:49:32;98646.28;;;7.46;100.00
1616;BME280;801;47.982;7.810;2023-04-26T03:51:58;98654.75;;;7.43;100.00
1616;BME280;801;47.982;7.810;2023-04-26T03:54:25;98655.00;;;7.41;100.00
1616;BME280;801;47.982;7.810;2023-04-26T03:56:52;98650.59;;;7.35;100.00
1616;BME280;801;47.982;7.810;2023-04-26T03:59:19;98651.06;;;7.32;100.00
1616;BME280;801;47.982;7.810;2023-04-26T04:01:46;98655.16;;;7.35;100.00
1616;BME280;801;47.982;7.810;2023-04-26T04:04:13;98651.69;;;7.22;100.00
1616;BME280;801;47.982;7.810;2023-04-26T04:06:40;98654.63;;;7.09;100.00
1616;BME280;801;47.982;7.810;2023-04-26T04:09:07;98649.84;;;7.11;100.00
1616;BME280;801;47.982;7.810;2023-04-26T04:11:33;98648.91;;;7.17;100.00
1616;BME280;801;47.982;7.810;2023-04-26T04:14:00;98645.63;;;7.27;100.00
1616;BME280;801;47.982;7.810;2023-04-26T04:16:28;98650.75;;;7.28;100.00
1616;BME280;801;47.982;7.810;2023-04-26T04:18:55;98649.38;;;7.26;100.00
1616;BME280;801;47.982;7.810;2023-04-26T04:21:21;98655.88;;;7.18;100.00
1616;BME280;801;47.982;7.810;2023-04-26T04:23:48;98661.28;;;6.95;100.00
1616;BME280;801;47.982;7.810;2023-04-26T04:26:15;98653.38;;;7.00;100.00
1616;BME280;801;47.982;7.810;2023-04-26T04:28:43;98648.97;;;6.94;100.00
1616;BME280;801;47.982;7.810;2023-04-26T04:31:11;98661.16;;;6.90;100.00
1616;BME280;801;47.982;7.810;2023-04-26T04:33:39;98654.44;;;6.99;100.00
1616;BME280;801;47.982;7.810;2023-04-26T04:36:06;98666.25;;;7.03;100.00
1616;BME280;801;47.982;7.810;2023-04-26T04:38:32;98664.53;;;6.97;100.00
1616;BME280;801;47.982;7.810;2023-04-26T04:41:00;98663.47;;;6.98;100.00
1616;BME280;801;47.982;7.810;2023-04-26T04:43:26;98669.31;;;6.95;100.00
1616;BME280;801;47.982;7.810;2023-04-26T04:45:53;98665.09;;;6.87;100.00
1616;BME280;801;47.982;7.810;2023-04-26T04:48:20;98659.88;;;6.80;100.00
1616;BME280;801;47.982;7.810;2023-04-26T04:50:48;98666.88;;;6.81;100.00
1616;BME280;801;47.982;7.810;2023-04-26T04:53:14;98662.69;;;6.85;100.00
1616;BME280;801;47.982;7.810;2023-04-26T04:55:41;98673.13;;;6.87;100.00
1616;BME280;801;47.982;7.810;2023-04-26T04:58:08;98673.59;;;6.84;100.00
1616;BME280;801;47.982;7.810;2023-04-26T05:00:35;98669.78;;;6.80;100.00
1616;BME280;801;47.982;7.810;2023-04-26T05:03:03;98681.63;;;6.72;100.00
1616;BME280;801;47.982;7.810;2023-04-26T05:05:30;98682.66;;;6.59;100.00
1616;BME280;801;47.982;7.810;2023-04-26T05:07:58;98691.13;;;6.44;100.00
1616;BME280;801;47.982;7.810;2023-04-26T05:10:25;98699.59;;;6.53;100.00
1616;BME280;801;47.982;7.810;2023-04-26T05:12:51;98696.94;;;6.65;100.00
1616;BME280;801;47.982;7.810;2023-04-26T05:15:18;98693.34;;;6.71;100.00
1616;BME280;801;47.982;7.810;2023-04-26T05:17:44;98704.28;;;6.81;100.00
1616;BME280;801;47.982;7.810;2023-04-26T05:20:12;98696.38;;;6.86;100.00
1616;BME280;801;47.982;7.810;2023-04-26T05:22:39;98693.91;;;6.85;100.00
1616;BME280;801;47.982;7.810;2023-04-26T05:25:08;98705.53;;;7.02;100.00
1616;BME280;801;47.982;7.810;2023-04-26T05:27:35;98723.19;;;6.92;100.00
1616;BME280;801;47.982;7.810;2023-04-26T05:30:03;98722.25;;;6.62;100.00
1616;BME280;801;47.982;7.810;2023-04-26T05:32:30;98714.13;;;6.57;100.00
1616;BME280;801;47.982;7.810;2023-04-26T05:34:57;98711.69;;;6.56;100.00
1616;BME280;801;47.982;7.810;2023-04-26T05:37:23;98720.53;;;6.68;100.00
1616;BME280;801;47.982;7.810;2023-04-26T05:39:50;98721.34;;;6.92;100.00
1616;BME280;801;47.982;7.810;2023-04-26T05:42:18;98733.88;;;7.03;100.00
1616;BME280;801;47.982;7.810;2023-04-26T05:44:44;98737.22;;;7.22;100.00
1616;BME280;801;47.982;7.810;2023-04-26T05:47:11;98739.59;;;7.47;100.00
1616;BME280;801;47.982;7.810;2023-04-26T05:49:37;98743.00;;;7.43;100.00
1616;BME280;801;47.982;7.810;2023-04-26T05:52:04;98746.31;;;7.62;100.00
1616;BME280;801;47.982;7.810;2023-04-26T05:54:30;98746.63;;;7.77;100.00
1616;BME280;801;47.982;7.810;2023-04-26T05:56:57;98752.22;;;7.76;100.00
1616;BME280;801;47.982;7.810;2023-04-26T05:59:25;98760.19;;;7.87;100.00
1616;BME280;801;47.982;7.810;2023-04-26T06:01:51;98758.31;;;7.88;100.00
1616;BME280;801;47.982;7.810;2023-04-26T06:04:18;98759.44;;;8.04;100.00
1616;BME280;801;47.982;7.810;2023-04-26T06:06:44;98761.41;;;8.08;100.00
1616;BME280;801;47.982;7.810;2023-04-26T06:09:11;98763.72;;;8.05;100.00
1616;BME280;801;47.982;7.810;2023-04-26T06:11:37;98770.00;;;8.10;100.00
1616;BME280;801;47.982;7.810;2023-04-26T06:14:04;98763.78;;;8.22;100.00
1616;BME280;801;47.982;7.810;2023-04-26T06:16:33;98765.41;;;8.23;100.00
1616;BME280;801;47.982;7.810;2023-04-26T06:18:59;98751.53;;;8.26;100.00
1616;BME280;801;47.982;7.810;2023-04-26T06:21:26;98762.53;;;8.41;100.00
1616;BME280;801;47.982;7.810;2023-04-26T06:23:52;98751.22;;;8.39;100.00
1616;BME280;801;47.982;7.810;2023-04-26T06:26:19;98758.88;;;8.47;100.00
1616;BME280;801;47.982;7.810;2023-04-26T06:28:45;98759.13;;;8.46;100.00
1616;BME280;801;47.982;7.810;2023-04-26T06:31:12;98750.28;;;8.45;100.00
1616;BME280;801;47.982;7.810;2023-04-26T06:33:40;98748.59;;;8.56;100.00
1616;BME280;801;47.982;7.810;2023-04-26T06:36:10;98742.72;;;8.59;100.00
1616;BME280;801;47.982;7.810;2023-04-26T06:38:36;98736.56;;;8.59;100.00
1616;BME280;801;47.982;7.810;2023-04-26T06:41:03;98733.06;;;8.75;100.00
1616;BME280;801;47.982;7.810;2023-04-26T06:43:30;98734.88;;;8.86;100.00
1616;BME280;801;47.982;7.810;2023-04-26T06:45:56;98742.66;;;8.88;100.00
1616;BME280;801;47.982;7.810;2023-04-26T06:48:23;98736.47;;;8.87;100.00
1616;BME280;801;47.982;7.810;2023-04-26T06:50:51;98742.75;;;8.93;100.00
1616;BME280;801;47.982;7.810;2023-04-26T06:53:17;98730.97;;;8.60;100.00
1616;BME280;801;47.982;7.810;2023-04-26T06:55:43;98735.84;;;8.63;100.00
1616;BME280;801;47.982;7.810;2023-04-26T06:58:10;98738.13;;;8.71;100.00
1616;BME280;801;47.982;7.810;2023-04-26T07:00:37;98732.03;;;8.76;100.00
1616;BME280;801;47.982;7.810;2023-04-26T07:03:03;98737.00;;;9.06;100.00
1616;BME280;801;47.982;7.810;2023-04-26T07:05:30;98737.84;;;9.07;100.00
1616;BME280;801;47.982;7.810;2023-04-26T07:07:58;98735.06;;;9.02;100.00
1616;BME280;801;47.982;7.810;2023-04-26T07:10:24;98728.34;;;8.99;100.00
1616;BME280;801;47.982;7.810;2023-04-26T07:12:51;98733.63;;;9.11;100.00
1616;BME280;801;47.982;7.810;2023-04-26T07:15:18;98734.25;;;9.01;100.00
1616;BME280;801;47.982;7.810;2023-04-26T07:17:44;98727.47;;;8.93;100.00
1616;BME280;801;47.982;7.810;2023-04-26T07:20:11;98729.41;;;8.98;100.00
1616;BME280;801;47.982;7.810;2023-04-26T07:22:39;98732.34;;;9.35;100.00
1616;BME280;801;47.982;7.810;2023-04-26T07:25:08;98729.00;;;9.50;100.00
1616;BME280;801;47.982;7.810;2023-04-26T07:27:34;98730.84;;;9.45;100.00
1616;BME280;801;47.982;7.810;2023-04-26T07:30:01;98730.09;;;9.10;100.00
1616;BME280;801;47.982;7.810;2023-04-26T07:32:27;98720.84;;;9.18;100.00
1616;BME280;801;47.982;7.810;2023-04-26T07:34:54;98732.59;;;8.78;100.00
1616;BME280;801;47.982;7.810;2023-04-26T07:37:20;98726.44;;;8.78;100.00
1616;BME280;801;47.982;7.810;2023-04-26T07:39:47;98729.19;;;9.22;100.00
1616;BME280;801;47.982;7.810;2023-04-26T07:42:15;98716.16;;;9.30;100.00
1616;BME280;801;47.982;7.810;2023-04-26T07:44:42;98722.50;;;9.02;100.00
1616;BME280;801;47.982;7.810;2023-04-26T07:47:11;98726.03;;;9.08;100.00
1616;BME280;801;47.982;7.810;2023-04-26T07:49:38;98724.88;;;9.21;100.00
1616;BME280;801;47.982;7.810;2023-04-26T07:52:06;98724.81;;;9.38;100.00
1616;BME280;801;47.982;7.810;2023-04-26T07:54:33;98716.97;;;9.53;100.00
1616;BME280;801;47.982;7.810;2023-04-26T07:56:59;98726.31;;;9.28;100.00
1616;BME280;801;47.982;7.810;2023-04-26T07:59:27;98723.53;;;9.40;100.00
1616;BME280;801;47.982;7.810;2023-04-26T08:01:54;98726.31;;;9.28;100.00
1616;BME280;801;47.982;7.810;2023-04-26T08:04:29;98733.16;;;9.19;100.00
1616;BME280;801;47.982;7.810;2023-04-26T08:06:57;98727.31;;;9.22;100.00
1616;BME280;801;47.982;7.810;2023-04-26T08:09:24;98732.44;;;9.46;100.00
1616;BME280;801;47.982;7.810;2023-04-26T08:11:50;98729.00;;;9.50;100.00
1616;BME280;801;47.982;7.810;2023-04-26T08:14:17;98724.28;;;9.35;100.00
1616;BME280;801;47.982;7.810;2023-04-26T08:16:45;98728.56;;;9.81;100.00
1616;BME280;801;47.982;7.810;2023-04-26T08:19:11;98727.13;;;10.00;100.00
1616;BME280;801;47.982;7.810;2023-04-26T08:21:37;98726.50;;;9.88;100.00
1616;BME280;801;47.982;7.810;2023-04-26T08:24:05;98727.06;;;9.90;100.00
1616;BME280;801;47.982;7.810;2023-04-26T08:26:31;98723.72;;;10.05;100.00
1616;BME280;801;47.982;7.810;2023-04-26T08:28:58;98723.06;;;9.70;100.00
1616;BME280;801;47.982;7.810;2023-04-26T08:31:24;98716.03;;;9.64;100.00
1616;BME280;801;47.982;7.810;2023-04-26T08:33:53;98726.84;;;9.69;100.00
1616;BME280;801;47.982;7.810;2023-04-26T08:36:19;98721.56;;;9.80;100.00
1616;BME280;801;47.982;7.810;2023-04-26T08:38:46;98718.25;;;9.94;100.00
1616;BME280;801;47.982;7.810;2023-04-26T08:41:12;98725.97;;;9.91;100.00
1616;BME280;801;47.982;7.810;2023-04-26T08:43:39;98724.31;;;9.85;100.00
1616;BME280;801;47.982;7.810;2023-04-26T08:46:09;98722.66;;;9.56;100.00
1616;BME280;801;47.982;7.810;2023-04-26T08:48:37;98719.75;;;10.12;100.00
1616;BME280;801;47.982;7.810;2023-04-26T08:51:06;98720.91;;;9.94;100.00
1616;BME280;801;47.982;7.810;2023-04-26T08:53:36;98719.31;;;10.21;100.00
1616;BME280;801;47.982;7.810;2023-04-26T08:56:03;98721.38;;;10.13;100.00
1616;BME280;801;47.982;7.810;2023-04-26T08:58:30;98726.63;;;9.98;100.00
1616;BME280;801;47.982;7.810;2023-04-26T09:00:57;98727.53;;;10.36;100.00
1616;BME280;801;47.982;7.810;2023-04-26T09:03:25;98730.19;;;10.09;100.00
1616;BME280;801;47.982;7.810;2023-04-26T09:05:52;98719.06;;;10.49;100.00
1616;BME280;801;47.982;7.810;2023-04-26T09:08:20;98728.50;;;10.57;100.00
1616;BME280;801;47.982;7.810;2023-04-26T09:10:47;98724.44;;;10.49;100.00
1616;BME280;801;47.982;7.810;2023-04-26T09:13:14;98728.63;;;10.72;100.00
1616;BME280;801;47.982;7.810;2023-04-26T09:15:40;98728.28;;;10.64;100.00
1616;BME280;801;47.982;7.810;2023-04-26T09:18:17;98730.09;;;10.53;100.00
1616;BME280;801;47.982;7.810;2023-04-26T09:20:44;98727.28;;;10.70;100.00
1616;BME280;801;47.982;7.810;2023-04-26T09:23:11;98728.41;;;10.79;100.00
1616;BME280;801;47.982;7.810;2023-04-26T09:25:39;98723.47;;;10.66;100.00
1616;BME280;801;47.982;7.810;2023-04-26T09:28:18;98721.78;;;10.92;100.00
1616;BME280;801;47.982;7.810;2023-04-26T09:30:45;98722.38;;;11.04;100.00
1616;BME280;801;47.982;7.810;2023-04-26T09:33:12;98713.97;;;10.95;100.00
1616;BME280;801;47.982;7.810;2023-04-26T09:35:39;98718.69;;;11.20;100.00
1616;BME280;801;47.982;7.810;2023-04-26T09:38:07;98703.41;;;11.31;100.00
1616;BME280;801;47.982;7.810;2023-04-26T09:40:37;98704.34;;;11.57;100.00
1616;BME280;801;47.982;7.810;2023-04-26T09:43:07;98703.53;;;11.57;100.00
1616;BME280;801;47.982;7.810;2023-04-26T09:45:42;98708.81;;;12.20;100.00
1616;BME280;801;47.982;7.810;2023-04-26T09:48:14;98709.97;;;11.56;100.00
1616;BME280;801;47.982;7.810;2023-04-26T09:50:41;98716.38;;;12.33;100.00
1616;BME280;801;47.982;7.810;2023-04-26T09:53:09;98716.63;;;12.67;100.00
1616;BME280;801;47.982;7.810;2023-04-26T09:55:36;98715.03;;;12.56;100.00
1616;BME280;801;47.982;7.810;2023-04-26T09:58:09;98712.84;;;12.07;100.00
1616;BME280;801;47.982;7.810;2023-04-26T10:00:37;98715.53;;;12.07;100.00
1616;BME280;801;47.982;7.810;2023-04-26T10:03:06;98709.09;;;12.13;100.00
1616;BME280;801;47.982;7.810;2023-04-26T10:05:35;98706.31;;;11.88;100.00
1616;BME280;801;47.982;7.810;2023-04-26T10:08:01;98707.44;;;12.12;100.00
1616;BME280;801;47.982;7.810;2023-04-26T10:10:29;98712.22;;;11.84;100.00
1616;BME280;801;47.982;7.810;2023-04-26T10:12:56;98704.69;;;11.81;100.00
1616;BME280;801;47.982;7.810;2023-04-26T10:15:25;98705.28;;;11.94;100.00
1616;BME280;801;47.982;7.810;2023-04-26T10:17:51;98707.41;;;11.92;100.00
1616;BME280;801;47.982;7.810;2023-04-26T10:20:19;98706.88;;;11.90;100.00
1616;BME280;801;47.982;7.810;2023-04-26T10:22:51;98705.31;;;12.24;100.00
1616;BME280;801;47.982;7.810;2023-04-26T10:25:18;98701.28;;;12.73;100.00
1616;BME280;801;47.982;7.810;2023-04-26T10:27:49;98694.53;;;12.60;100.00
1616;BME280;801;47.982;7.810;2023-04-26T10:30:18;98696.34;;;13.16;100.00
1616;BME280;801;47.982;7.810;2023-04-26T10:33:16;98701.00;;;13.76;100.00
1616;BME280;801;47.982;7.810;2023-04-26T10:36:13;98695.31;;;12.92;100.00
1616;BME280;801;47.982;7.810;2023-04-26T10:41:35;98685.78;;;13.30;100.00
1616;BME280;801;47.982;7.810;2023-04-26T10:44:37;98703.41;;;12.81;100.00
1616;BME280;801;47.982;7.810;2023-04-26T10:47:04;98697.72;;;13.03;100.00
1616;BME280;801;47.982;7.810;2023-04-26T10:49:42;98690.97;;;13.11;100.00
1616;BME280;801;47.982;7.810;2023-04-26T10:52:11;98681.47;;;13.24;96.11
1616;BME280;801;47.982;7.810;2023-04-26T10:54:46;98682.78;;;13.91;95.18
1616;BME280;801;47.982;7.810;2023-04-26T10:57:13;98676.78;;;13.50;97.85
1616;BME280;801;47.982;7.810;2023-04-26T11:02:44;98681.69;;;13.43;95.61
1616;BME280;801;47.982;7.810;2023-04-26T11:05:32;98673.13;;;14.20;93.74
1616;BME280;801;47.982;7.810;2023-04-26T11:08:06;98672.63;;;14.18;92.81
1616;BME280;801;47.982;7.810;2023-04-26T11:10:36;98677.34;;;13.97;94.15
1616;BME280;801;47.982;7.810;2023-04-26T11:13:02;98673.88;;;13.36;95.44
1616;BME280;801;47.982;7.810;2023-04-26T11:15:30;98672.69;;;13.63;93.19
1616;BME280;801;47.982;7.810;2023-04-26T11:17:57;98668.66;;;14.05;91.84
1616;BME280;801;47.982;7.810;2023-04-26T11:20:29;98660.91;;;13.43;83.97
1616;BME280;801;47.982;7.810;2023-04-26T11:22:56;98651.91;;;14.03;84.60
1616;BME280;801;47.982;7.810;2023-04-26T11:25:24;98658.59;;;14.10;87.00
1616;BME280;801;47.982;7.810;2023-04-26T11:27:56;98648.25;;;13.83;86.13
1616;BME280;801;47.982;7.810;2023-04-26T11:30:22;98651.19;;;14.26;85.79
1616;BME280;801;47.982;7.810;2023-04-26T11:32:49;98647.81;;;14.10;82.17
1616;BME280;801;47.982;7.810;2023-04-26T11:35:16;98646.28;;;14.33;80.83
1616;BME280;801;47.982;7.810;2023-04-26T11:37:45;98653.19;;;13.76;79.26
1616;BME280;801;47.982;7.810;2023-04-26T11:40:14;98643.84;;;13.98;78.03
1616;BME280;801;47.982;7.810;2023-04-26T11:42:42;98646.03;;;13.90;75.73
1616;BME280;801;47.982;7.810;2023-04-26T11:45:10;98647.78;;;14.79;75.32
1616;BME280;801;47.982;7.810;2023-04-26T11:47:36;98654.28;;;14.44;74.42
1616;BME280;801;47.982;7.810;2023-04-26T11:50:04;98651.34;;;14.06;81.73
1616;BME280;801;47.982;7.810;2023-04-26T11:52:32;98656.94;;;13.80;82.61
1616;BME280;801;47.982;7.810;2023-04-26T11:55:05;98653.84;;;14.66;78.86
1616;BME280;801;47.982;7.810;2023-04-26T11:57:32;98650.78;;;15.02;77.60
1616;BME280;801;47.982;7.810;2023-04-26T12:00:07;98642.47;;;15.41;77.83
1616;BME280;801;47.982;7.810;2023-04-26T12:02:35;98649.22;;;16.01;77.55
1616;BME280;801;47.982;7.810;2023-04-26T12:05:02;98653.44;;;15.69;76.12
1616;BME280;801;47.982;7.810;2023-04-26T12:07:33;98630.06;;;15.16;79.97
1616;BME280;801;47.982;7.810;2023-04-26T12:10:13;98628.09;;;14.98;78.96
1616;BME280;801;47.982;7.810;2023-04-26T12:12:43;98629.34;;;14.81;79.04
1616;BME280;801;47.982;7.810;2023-04-26T12:15:10;98626.63;;;15.72;80.65
1616;BME280;801;47.982;7.810;2023-04-26T12:17:36;98618.66;;;15.81;80.70
1616;BME280;801;47.982;7.810;2023-04-26T12:20:08;98616.84;;;15.52;74.99
1616;BME280;801;47.982;7.810;2023-04-26T12:22:35;98620.41;;;15.72;76.57
1616;BME280;801;47.982;7.810;2023-04-26T12:25:05;98613.97;;;15.63;69.57
1616;BME280;801;47.982;7.810;2023-04-26T12:27:33;98622.47;;;15.56;63.80
1616;BME280;801;47.982;7.810;2023-04-26T12:30:00;98624.53;;;15.64;65.53
1616;BME280;801;47.982;7.810;2023-04-26T12:32:27;98621.03;;;15.64;62.63
1616;BME280;801;47.982;7.810;2023-04-26T12:34:53;98625.00;;;15.90;62.89
1616;BME280;801;47.982;7.810;2023-04-26T12:37:20;98615.63;;;15.83;68.16
1616;BME280;801;47.982;7.810;2023-04-26T12:39:46;98609.84;;;15.89;68.02
1616;BME280;801;47.982;7.810;2023-04-26T12:42:13;98606.47;;;15.97;64.70
1616;BME280;801;47.982;7.810;2023-04-26T12:44:41;98607.78;;;15.43;67.21
1616;BME280;801;47.982;7.810;2023-04-26T12:47:07;98595.53;;;15.65;64.25
1616;BME280;801;47.982;7.810;2023-04-26T12:49:34;98591.41;;;15.72;63.66
1616;BME280;801;47.982;7.810;2023-04-26T12:52:00;98605.03;;;15.00;63.88
1616;BME280;801;47.982;7.810;2023-04-26T12:54:27;98598.75;;;15.29;63.23
1616;BME280;801;47.982;7.810;2023-04-26T12:56:54;98603.28;;;15.33;63.99
1616;BME280;801;47.982;7.810;2023-04-26T12:59:20;98606.56;;;15.11;63.89
1616;BME280;801;47.982;7.810;2023-04-26T13:01:48;98605.19;;;14.90;58.97
1616;BME280;801;47.982;7.810;2023-04-26T13:04:15;98601.97;;;14.88;58.64
1616;BME280;801;47.982;7.810;2023-04-26T13:06:41;98603.00;;;15.35;59.59
1616;BME280;801;47.982;7.810;2023-04-26T13:09:08;98602.41;;;15.38;55.00
1616;BME280;801;47.982;7.810;2023-04-26T13:11:37;98606.97;;;15.43;51.23
1616;BME280;801;47.982;7.810;2023-04-26T13:14:04;98608.34;;;15.40;51.07
1616;BME280;801;47.982;7.810;2023-04-26T13:16:31;98612.91;;;15.64;53.06
1616;BME280;801;47.982;7.810;2023-04-26T13:18:59;98607.94;;;15.71;54.50
1616;BME280;801;47.982;7.810;2023-04-26T13:21:26;98603.47;;;15.80;54.59
1616;BME280;801;47.982;7.810;2023-04-26T13:23:53;98612.53;;;16.08;54.13
1616;BME280;801;47.982;7.810;2023-04-26T13:26:19;98612.19;;;15.77;52.35
1616;BME280;801;47.982;7.810;2023-04-26T13:28:46;98610.00;;;15.79;53.06
1616;BME280;801;47.982;7.810;2023-04-26T13:31:12;98607.38;;;15.74;52.06
1616;BME280;801;47.982;7.810;2023-04-26T13:33:41;98606.47;;;17.05;48.24
1616;BME280;801;47.982;7.810;2023-04-26T13:36:09;98604.16;;;16.98;48.27
1616;BME280;801;47.982;7.810;2023-04-26T13:38:35;98603.56;;;16.40;48.70
1616;BME280;801;47.982;7.810;2023-04-26T13:41:02;98608.56;;;16.19;48.49